Pagrindinis puslapis
METAR-TAF:

METAR-TAF

Oro uostai :

Ängelholm–Helsingborg

Helsingborgas, Švedija

platuma: 56-17-46N, ilguma: 012-50-50E, Aukštis: 21 m

Dabartinis oras

Ataskaita buvo paskelbta 19 minutes, ne 09:50 UTC
Vėjas 7 kt iš Pietų/Pietryčių, svyruoja nuo Pietryčių ir Pietų/Pietvakarių
Temperatūra 13°C
Drėgmė 72%
Slėgis 1001 hPa
Matomumas 10 km arba daugiau
Išsisklaidę debesys ne aukštis 2700 ft

METAR: ESTA 170950Z 16007KT 130V210 9999 SCT027 13/08 Q1001

Laikas: 12:09 (10:09 UTC)

Prognozė

Ataskaita buvo paskelbta 2 valandos ir 8 minutes, ne 08:01 UTC
Prognozė galioja nuo 17 metu 09 UTC su 17 metu 18 UTC
Vėjas 6 kt iš Pietų
Matomumas 10 km arba daugiau
Su prošvaistėmis ne aukštis 800 ft
Tapsmas
nuo 17 metu 09 UTC su 17 metu 11 UTC
Su prošvaistėmis ne aukštis 2000 ft
Laikinai
nuo 17 metu 12 UTC su 17 metu 17 UTC
Matomumas: 4000 m
Išsisklaidę debesys ne aukštis 2000 ft, Liūtiniai kamuoliniai debesys.
lietus

TAF: ESTA 170801Z 1709/1718 19006KT 9999 BKN008 BECMG 1709/1711 BKN020 TEMPO 1712/1717 4000 SHRA SCT020CB

Orai ataskaitas ir orų prognozės (METAR, TAF).

turimą stotys yra geltonos ir raudonos taškus žemėlapyje.

Perkelti pele per norėdami pamatyti stoties vardą.

Tada spustelėkite, norėdami matyti oro stebėjimo ir prognozės.

Norėdami pakeisti žemėlapį: spustelėkite ant žalios mygtukų su juodo kryžiaus žemyn,; žalią mygtuką su brūkšneliu, jei norite nutolinti; arba žalių rodyklių gretimoms žemėlapius.


METAR-TAF: